THY9521 SKIB-MPTO
Flight info
| Callsign | THY9521 |
|---|---|
| Flight time | N/A |
| Altitude | 34000 |
| Route | VASIL DCT NIRSO DCT PULOX DCT EVSOS DCT DAKMO DCT ITAGO |
| Aircraft | B738/M-SDE2E3FGHIRWXY/LB1 |
Departure
| Time | N/A |
|---|---|
| Airport | Perales Airport (SKIB) |
Arrival
| Time | 2026-05-01 14:36 |
|---|---|
| Airport | Tocumen International Airport (MPTO) |
| Time | Latitude | Longitude | Altitude | Speed | Heading |
|---|---|---|---|---|---|
| 2026-05-01 14:32 | 8.85230 | -79.44131 | 3609 ft | 241 kts | 326° |
| 2026-05-01 14:32 | 8.87013 | -79.45432 | 3373 ft | 234 kts | 326° |
| 2026-05-01 14:32 | 8.88308 | -79.46387 | 3257 ft | 227 kts | 326° |
| 2026-05-01 14:33 | 8.89678 | -79.47087 | 3112 ft | 219 kts | 352° |
| 2026-05-01 14:33 | 8.91176 | -79.46948 | 2928 ft | 219 kts | 24° |
| 2026-05-01 14:33 | 8.92525 | -79.46210 | 2737 ft | 221 kts | 29° |
| 2026-05-01 14:33 | 8.93849 | -79.45465 | 2506 ft | 216 kts | 29° |
| 2026-05-01 14:34 | 8.95146 | -79.44732 | 2218 ft | 212 kts | 30° |
| 2026-05-01 14:34 | 8.96417 | -79.44010 | 1950 ft | 208 kts | 28° |
| 2026-05-01 14:34 | 8.97671 | -79.43296 | 1676 ft | 206 kts | 29° |
| 2026-05-01 14:34 | 8.98912 | -79.42591 | 1390 ft | 203 kts | 29° |
| 2026-05-01 14:35 | 9.00134 | -79.41896 | 1164 ft | 200 kts | 28° |
| 2026-05-01 14:35 | 9.01338 | -79.41211 | 885 ft | 195 kts | 28° |
| 2026-05-01 14:35 | 9.02484 | -79.40560 | 599 ft | 183 kts | 28° |
| 2026-05-01 14:35 | 9.03539 | -79.39961 | 395 ft | 163 kts | 27° |
| 2026-05-01 14:36 | 9.04472 | -79.39432 | 207 ft | 146 kts | 27° |
| 2026-05-01 14:36 | 9.05298 | -79.38960 | 33 ft | 129 kts | 27° |
| 2026-05-01 14:36 | 9.05937 | -79.38603 | 31 ft | 76 kts | 30° |
| 2026-05-01 14:36 | 9.06218 | -79.38439 | 30 ft | 27 kts | 30° |
| 2026-05-01 14:37 | 9.06386 | -79.38376 | 29 ft | 25 kts | 5° |
| 2026-05-01 14:37 | 9.06550 | -79.38379 | 29 ft | 20 kts | 359° |
| 2026-05-01 14:37 | 9.06647 | -79.38407 | 29 ft | 0 kts | 303° |
| 2026-05-01 14:39 | 9.06648 | -79.38410 | 29 ft | 2 kts | 303° |
| 2026-05-01 14:39 | 9.06668 | -79.38436 | 29 ft | 7 kts | 320° |
| 2026-05-01 14:39 | 9.06732 | -79.38421 | 29 ft | 13 kts | 27° |
| 2026-05-01 14:39 | 9.06833 | -79.38374 | 29 ft | 19 kts | 8° |
| 2026-05-01 14:40 | 9.06930 | -79.38460 | 29 ft | 12 kts | 337° |
| 2026-05-01 14:40 | 9.07018 | -79.38434 | 29 ft | 15 kts | 18° |
| 2026-05-01 14:40 | 9.07064 | -79.38454 | 30 ft | 8 kts | 315° |
| 2026-05-01 14:40 | 9.07086 | -79.38477 | 30 ft | 0 kts | 313° |